LBSF - SOFIA

Compiled: 17:57:04 on 22/07/2018

Latest METAR/SPECI Reports

METAR LBSF 221730Z 11007KT 9999 FEW065 24/18 Q1009 NOSIG=

Previous reports

METAR LBSF 221730Z 11007KT 9999 FEW065 24/18 Q1009 NOSIG=
METAR LBSF 221700Z 10009KT 9999 FEW065 24/18 Q1009 NOSIG=
METAR LBSF 221700Z 10009KT 9999 FEW065 24/18 Q1009 NOSIG=
METAR LBSF 221630Z 10008KT 9999 FEW065 26/18 Q1009 NOSIG=

Latest TAF report

TAF LBSF 221700Z 2218/2318 VRB04KT 9999 SCT050 PROB30 TEMPO 2223/2303 TSRA FEW040CB BECMG 2306/2308 30010KT SCT040 BKN060 TEMPO 2308/2318 3000 TSRA SCT030CB BKN040=

Valid WARNINGS

No valid warnings for LBSF